Wetterstation Vordersexau
Wetterdaten: Woche 05.10.15 - 11.10.15 (KW41)
Datum Zeit Temp. A. Feuchte A. Luftdruck Regen Wind Richtung Taupunkt Windchill Windben
05.10.2015 00:00 8,9 C 84 % 1013,9 hPa 0,0 l/m 0,0 km/h O 6,3 C 8,9 C 0,0 km/h
05.10.2015 01:00 8,4 C 85 % 1013,4 hPa 0,0 l/m 0,0 km/h O 6,0 C 8,4 C 0,0 km/h
05.10.2015 02:00 8,4 C 85 % 1013,6 hPa 0,0 l/m 0,0 km/h SO 6,0 C 8,4 C 0,0 km/h
05.10.2015 03:00 9,1 C 85 % 1013,6 hPa 0,0 l/m 0,0 km/h SO 6,7 C 9,1 C 0,0 km/h
05.10.2015 04:00 9,3 C 85 % 1014,3 hPa 0,0 l/m 0,0 km/h S 6,9 C 9,3 C 0,0 km/h
05.10.2015 05:00 9,7 C 85 % 1014,4 hPa 0,4 l/m 0,0 km/h SO 7,3 C 9,7 C 0,0 km/h
05.10.2015 06:00 10,1 C 85 % 1013,9 hPa 0,4 l/m 0,0 km/h O-SO 7,7 C 10,1 C 0,0 km/h
05.10.2015 07:00 10,4 C 85 % 1013,4 hPa 0,0 l/m 0,0 km/h SO 8,0 C 10,4 C 0,0 km/h
05.10.2015 08:00 11,4 C 85 % 1013,2 hPa 0,0 l/m 0,0 km/h SO 9,0 C 11,4 C 0,0 km/h
05.10.2015 09:00 12,9 C 85 % 1013,4 hPa 0,0 l/m 0,0 km/h O-SO 10,4 C 12,9 C 0,0 km/h
05.10.2015 10:00 15,1 C 85 % 1013,0 hPa 0,0 l/m 0,0 km/h N-NW 12,6 C 15,1 C 0,0 km/h
05.10.2015 11:00 18,5 C 80 % 1012,3 hPa 0,0 l/m 0,0 km/h W-NW 15,0 C 18,5 C 0,0 km/h
05.10.2015 12:00 20,9 C 72 % 1011,3 hPa 0,0 l/m 0,0 km/h W 15,7 C 20,9 C 0,0 km/h
05.10.2015 13:00 22,1 C 63 % 1010,9 hPa 0,0 l/m 0,0 km/h N-NO 14,7 C 22,1 C 0,0 km/h
05.10.2015 14:00 22,4 C 62 % 1010,0 hPa 0,0 l/m 0,6 km/h N-NW 14,8 C 22,4 C 0,4 km/h
05.10.2015 15:00 23,6 C 57 % 1009,0 hPa 0,0 l/m 0,0 km/h N 14,6 C 23,6 C 0,0 km/h
05.10.2015 16:00 22,6 C 59 % 1008,2 hPa 0,0 l/m 0,0 km/h NW 14,2 C 22,6 C 0,0 km/h
05.10.2015 17:00 19,9 C 68 % 1007,8 hPa 0,0 l/m 0,0 km/h W-NW 13,8 C 19,9 C 0,0 km/h
05.10.2015 18:00 18,2 C 76 % 1007,4 hPa 0,0 l/m 0,0 km/h W-NW 13,9 C 18,2 C 0,0 km/h
05.10.2015 19:00 16,4 C 80 % 1007,6 hPa 0,0 l/m 0,0 km/h W-NW 12,9 C 16,4 C 0,0 km/h
05.10.2015 20:00 15,6 C 84 % 1007,0 hPa 0,4 l/m 0,0 km/h W-NW 12,9 C 15,6 C 0,0 km/h
05.10.2015 21:00 15,4 C 84 % 1007,2 hPa 0,0 l/m 0,0 km/h S-SO 12,7 C 15,4 C 0,0 km/h
05.10.2015 22:00 15,5 C 84 % 1007,2 hPa 0,0 l/m 0,0 km/h O 12,8 C 15,5 C 0,0 km/h
05.10.2015 23:00 15,3 C 84 % 1006,6 hPa 0,0 l/m 0,0 km/h N-NO 12,6 C 15,3 C 0,0 km/h
06.10.2015 00:00 15,3 C 84 % 1006,2 hPa 0,0 l/m 0,0 km/h N-NO 12,6 C 15,3 C 0,0 km/h
06.10.2015 01:00 15,4 C 82 % 1006,1 hPa 0,0 l/m 0,0 km/h NO 12,3 C 15,4 C 0,0 km/h
06.10.2015 02:00 15,1 C 82 % 1006,1 hPa 0,0 l/m 0,0 km/h S 12,0 C 15,1 C 0,0 km/h
06.10.2015 03:00 15,8 C 80 % 1005,9 hPa 0,0 l/m 0,0 km/h NO 12,4 C 15,8 C 0,0 km/h
06.10.2015 04:00 15,4 C 84 % 1005,4 hPa 0,0 l/m 0,0 km/h O-NO 12,7 C 15,4 C 0,0 km/h
06.10.2015 05:00 14,9 C 83 % 1005,1 hPa 0,0 l/m 0,0 km/h SO 12,0 C 14,9 C 0,0 km/h
06.10.2015 06:00 14,6 C 83 % 1004,4 hPa 0,0 l/m 0,0 km/h SO 11,7 C 14,6 C 0,0 km/h
06.10.2015 07:00 14,5 C 83 % 1003,9 hPa 0,0 l/m 0,0 km/h NO 11,6 C 14,5 C 0,0 km/h
06.10.2015 08:00 15,8 C 83 % 1003,5 hPa 0,0 l/m 0,0 km/h NO 12,9 C 15,8 C 0,0 km/h
06.10.2015 09:00 18,2 C 85 % 1003,1 hPa 0,0 l/m 0,0 km/h W 15,6 C 18,2 C 0,0 km/h
06.10.2015 10:00 19,9 C 82 % 1003,7 hPa 0,0 l/m 1,9 km/h W 16,7 C 19,9 C 1,1 km/h
06.10.2015 11:00 19,3 C 79 % 1004,1 hPa 0,0 l/m 0,0 km/h S-SO 15,6 C 19,3 C 0,0 km/h
06.10.2015 12:00 19,8 C 80 % 1004,2 hPa 0,0 l/m 0,0 km/h W-NW 16,2 C 19,8 C 0,0 km/h
06.10.2015 13:00 18,1 C 83 % 1005,3 hPa 0,4 l/m 21,4 km/h S 15,2 C 13,5 C 11,9 km/h
06.10.2015 14:00 16,3 C 85 % 1005,5 hPa 2,5 l/m 7,8 km/h S 13,8 C 15,6 C 4,3 km/h
06.10.2015 15:00 16,7 C 84 % 1004,8 hPa 0,8 l/m 0,0 km/h S-SO 14,0 C 16,7 C 0,0 km/h
06.10.2015 16:00 16,8 C 85 % 1004,7 hPa 0,4 l/m 0,0 km/h O-NO 14,3 C 16,8 C 0,0 km/h
06.10.2015 17:00 16,4 C 85 % 1004,6 hPa 0,0 l/m 0,0 km/h N-NO 13,9 C 16,4 C 0,0 km/h
06.10.2015 18:00 15,5 C 84 % 1005,0 hPa 0,0 l/m 3,2 km/h N-NO 12,8 C 15,5 C 1,8 km/h
06.10.2015 19:00 15,1 C 83 % 1005,4 hPa 0,0 l/m 0,0 km/h N-NO 12,2 C 15,1 C 0,0 km/h
06.10.2015 20:00 14,8 C 83 % 1005,9 hPa 0,0 l/m 1,3 km/h NO 11,9 C 14,8 C 0,7 km/h
06.10.2015 21:00 14,5 C 82 % 1005,9 hPa 0,0 l/m 0,0 km/h N-NO 11,5 C 14,5 C 0,0 km/h
06.10.2015 22:00 14,5 C 81 % 1006,6 hPa 0,0 l/m 0,0 km/h NO 11,3 C 14,5 C 0,0 km/h
06.10.2015 23:00 14,2 C 82 % 1006,9 hPa 0,0 l/m 0,0 km/h O-SO 11,2 C 14,2 C 0,0 km/h
07.10.2015 00:00 14,1 C 81 % 1007,2 hPa 0,0 l/m 0,0 km/h O-SO 10,9 C 14,1 C 0,0 km/h
07.10.2015 01:00 15,0 C 82 % 1007,3 hPa 0,0 l/m 0,0 km/h S 12,0 C 15,0 C 0,0 km/h
07.10.2015 02:00 15,2 C 83 % 1007,6 hPa 0,0 l/m 0,0 km/h S 12,3 C 15,2 C 0,0 km/h
07.10.2015 03:00 15,3 C 86 % 1007,8 hPa 0,4 l/m 12,3 km/h S-SW 13,0 C 12,5 C 6,8 km/h
07.10.2015 04:00 15,3 C 86 % 1008,1 hPa 0,0 l/m 0,0 km/h W-SW 13,0 C 15,3 C 0,0 km/h
07.10.2015 05:00 15,0 C 86 % 1008,5 hPa 0,0 l/m 11,7 km/h S-SW 12,7 C 12,4 C 6,5 km/h
07.10.2015 06:00 14,9 C 85 % 1009,1 hPa 0,0 l/m 21,4 km/h W-SW 12,4 C 9,3 C 11,9 km/h
07.10.2015 07:00 14,5 C 86 % 1009,7 hPa 0,0 l/m 11,7 km/h W-SW 12,2 C 11,8 C 6,5 km/h
07.10.2015 08:00 14,7 C 85 % 1010,5 hPa 0,0 l/m 10,4 km/h W-SW 12,2 C 12,6 C 5,8 km/h
07.10.2015 09:00 15,7 C 82 % 1011,5 hPa 0,0 l/m 9,7 km/h W-SW 12,6 C 14,0 C 5,4 km/h
07.10.2015 10:00 17,9 C 78 % 1012,1 hPa 0,0 l/m 9,7 km/h SW 14,0 C 16,4 C 5,4 km/h
07.10.2015 11:00 17,5 C 72 % 1012,7 hPa 0,0 l/m 11,0 km/h SW 12,4 C 15,5 C 6,1 km/h
07.10.2015 12:00 16,9 C 73 % 1013,1 hPa 0,0 l/m 21,4 km/h SW 12,0 C 11,9 C 11,9 km/h
07.10.2015 13:00 17,2 C 68 % 1013,1 hPa 0,0 l/m 22,7 km/h SW 11,2 C 12,0 C 12,6 km/h
07.10.2015 14:00 18,4 C 63 % 1013,2 hPa 0,0 l/m 12,3 km/h W-SW 11,2 C 16,1 C 6,8 km/h
07.10.2015 15:00 18,7 C 62 % 1013,3 hPa 0,0 l/m 19,4 km/h W-SW 11,3 C 14,6 C 10,8 km/h
07.10.2015 16:00 17,0 C 65 % 1013,2 hPa 0,0 l/m 24,6 km/h W-SW 10,4 C 11,4 C 13,7 km/h
07.10.2015 17:00 16,1 C 67 % 1013,7 hPa 0,0 l/m 16,2 km/h W-SW 10,0 C 12,2 C 9,0 km/h
07.10.2015 18:00 14,9 C 73 % 1014,3 hPa 0,0 l/m 0,0 km/h W-SW 10,1 C 14,9 C 0,0 km/h
07.10.2015 19:00 14,3 C 75 % 1015,2 hPa 0,0 l/m 11,7 km/h N-NO 9,9 C 11,6 C 6,5 km/h
07.10.2015 20:00 13,3 C 80 % 1015,8 hPa 0,0 l/m 0,6 km/h N-NO 9,9 C 13,3 C 0,4 km/h
07.10.2015 21:00 12,6 C 83 % 1016,2 hPa 0,0 l/m 0,0 km/h N-NO 9,8 C 12,6 C 0,0 km/h
07.10.2015 22:00 11,8 C 84 % 1016,4 hPa 0,0 l/m 0,0 km/h NO 9,2 C 11,8 C 0,0 km/h
07.10.2015 23:00 9,9 C 85 % 1016,6 hPa 0,0 l/m 0,0 km/h NO 7,5 C 9,9 C 0,0 km/h
08.10.2015 00:00 8,8 C 86 % 1016,7 hPa 0,0 l/m 0,0 km/h NO 6,6 C 8,8 C 0,0 km/h
08.10.2015 01:00 8,1 C 86 % 1016,7 hPa 0,0 l/m 0,0 km/h SO 5,9 C 8,1 C 0,0 km/h
08.10.2015 02:00 7,9 C 86 % 1017,0 hPa 0,0 l/m 0,0 km/h O-NO 5,7 C 7,9 C 0,0 km/h
08.10.2015 03:00 7,6 C 85 % 1016,9 hPa 0,0 l/m 0,0 km/h O 5,2 C 7,6 C 0,0 km/h
08.10.2015 04:00 8,4 C 85 % 1016,6 hPa 0,0 l/m 0,0 km/h O-SO 6,0 C 8,4 C 0,0 km/h
08.10.2015 05:00 8,6 C 84 % 1016,8 hPa 0,0 l/m 0,0 km/h SO 6,1 C 8,6 C 0,0 km/h
08.10.2015 06:00 8,9 C 84 % 1016,6 hPa 0,0 l/m 0,0 km/h SO 6,3 C 8,9 C 0,0 km/h
08.10.2015 07:00 8,9 C 84 % 1016,9 hPa 0,0 l/m 0,0 km/h SO 6,3 C 8,9 C 0,0 km/h
08.10.2015 08:00 9,6 C 83 % 1017,3 hPa 0,0 l/m 0,0 km/h SO 6,9 C 9,6 C 0,0 km/h
08.10.2015 09:00 11,2 C 81 % 1017,8 hPa 0,0 l/m 0,0 km/h O-NO 8,1 C 11,2 C 0,0 km/h
08.10.2015 10:00 13,9 C 85 % 1018,0 hPa 0,0 l/m 0,0 km/h N-NW 11,4 C 13,9 C 0,0 km/h
08.10.2015 11:00 17,6 C 77 % 1017,9 hPa 0,0 l/m 0,0 km/h W-NW 13,5 C 17,6 C 0,0 km/h
08.10.2015 12:00 18,6 C 64 % 1018,1 hPa 0,0 l/m 0,0 km/h W-SW 11,7 C 18,6 C 0,0 km/h
08.10.2015 13:00 20,6 C 58 % 1017,8 hPa 0,0 l/m 9,1 km/h W-NW 12,0 C 19,6 C 5,0 km/h
08.10.2015 14:00 19,4 C 57 % 1017,7 hPa 0,0 l/m 0,0 km/h W-NW 10,7 C 19,4 C 0,0 km/h
08.10.2015 15:00 18,8 C 54 % 1017,4 hPa 0,0 l/m 1,9 km/h NW 9,3 C 18,8 C 1,1 km/h
08.10.2015 16:00 18,1 C 56 % 1017,5 hPa 0,0 l/m 0,0 km/h N-NO 9,2 C 18,1 C 0,0 km/h
08.10.2015 17:00 15,8 C 62 % 1017,8 hPa 0,0 l/m 0,0 km/h N-NO 8,5 C 15,8 C 0,0 km/h
08.10.2015 18:00 14,3 C 69 % 1017,9 hPa 0,0 l/m 0,0 km/h N-NO 8,7 C 14,3 C 0,0 km/h
08.10.2015 19:00 12,4 C 73 % 1018,3 hPa 0,0 l/m 0,0 km/h N-NO 7,7 C 12,4 C 0,0 km/h
08.10.2015 20:00 10,4 C 79 % 1018,4 hPa 0,0 l/m 0,0 km/h O-SO 6,9 C 10,4 C 0,0 km/h
08.10.2015 21:00 10,4 C 82 % 1018,6 hPa 0,0 l/m 0,0 km/h O-SO 7,5 C 10,4 C 0,0 km/h
08.10.2015 22:00 10,6 C 83 % 1018,8 hPa 0,0 l/m 0,0 km/h O 7,8 C 10,6 C 0,0 km/h
08.10.2015 23:00 10,8 C 84 % 1018,6 hPa 0,0 l/m 0,0 km/h O 8,2 C 10,8 C 0,0 km/h
09.10.2015 00:00 10,8 C 85 % 1018,2 hPa 0,0 l/m 0,0 km/h O 8,4 C 10,8 C 0,0 km/h
09.10.2015 01:00 10,7 C 85 % 1018,1 hPa 0,0 l/m 0,0 km/h O 8,3 C 10,7 C 0,0 km/h
09.10.2015 02:00 10,4 C 85 % 1018,0 hPa 0,0 l/m 0,0 km/h O 8,0 C 10,4 C 0,0 km/h
09.10.2015 03:00 10,4 C 86 % 1017,5 hPa 0,0 l/m 0,0 km/h O 8,2 C 10,4 C 0,0 km/h
09.10.2015 04:00 9,9 C 86 % 1017,5 hPa 0,0 l/m 0,0 km/h O 7,7 C 9,9 C 0,0 km/h
09.10.2015 05:00 9,8 C 86 % 1017,4 hPa 0,0 l/m 0,0 km/h O 7,6 C 9,8 C 0,0 km/h
09.10.2015 06:00 9,3 C 86 % 1017,6 hPa 0,0 l/m 0,0 km/h O 7,1 C 9,3 C 0,0 km/h
09.10.2015 07:00 7,6 C 86 % 1017,5 hPa 0,0 l/m 0,0 km/h W-NW 5,4 C 7,6 C 0,0 km/h
09.10.2015 08:00 7,8 C 86 % 1017,5 hPa 0,0 l/m 0,0 km/h W-NW 5,6 C 7,8 C 0,0 km/h
09.10.2015 09:00 11,6 C 83 % 1017,8 hPa 0,0 l/m 0,0 km/h W 8,8 C 11,6 C 0,0 km/h
09.10.2015 10:00 16,1 C 77 % 1017,4 hPa 0,0 l/m 0,0 km/h W 12,1 C 16,1 C 0,0 km/h
09.10.2015 11:00 19,8 C 68 % 1017,1 hPa 0,0 l/m 0,0 km/h S-SW 13,7 C 19,8 C 0,0 km/h
09.10.2015 12:00 17,0 C 71 % 1016,7 hPa 0,0 l/m 0,0 km/h W-NW 11,7 C 17,0 C 0,0 km/h
09.10.2015 13:00 18,6 C 66 % 1016,2 hPa 0,0 l/m 0,0 km/h N-NO 12,1 C 18,6 C 0,0 km/h
09.10.2015 14:00 18,9 C 62 % 1015,6 hPa 0,0 l/m 0,0 km/h NW 11,5 C 18,9 C 0,0 km/h
09.10.2015 15:00 20,4 C 61 % 1015,2 hPa 0,0 l/m 0,0 km/h N-NO 12,6 C 20,4 C 0,0 km/h
09.10.2015 16:00 20,9 C 53 % 1015,2 hPa 0,0 l/m 0,0 km/h N-NO 11,0 C 20,9 C 0,0 km/h
09.10.2015 17:00 18,5 C 60 % 1015,1 hPa 0,0 l/m 0,0 km/h N-NO 10,6 C 18,5 C 0,0 km/h
09.10.2015 18:00 15,5 C 69 % 1015,1 hPa 0,0 l/m 0,0 km/h N-NO 9,8 C 15,5 C 0,0 km/h
09.10.2015 19:00 13,0 C 75 % 1015,2 hPa 0,0 l/m 0,0 km/h N-NO 8,7 C 13,0 C 0,0 km/h
09.10.2015 20:00 12,1 C 79 % 1015,5 hPa 0,0 l/m 0,0 km/h N-NO 8,6 C 12,1 C 0,0 km/h
09.10.2015 21:00 12,1 C 83 % 1015,5 hPa 0,0 l/m 0,0 km/h NO 9,3 C 12,1 C 0,0 km/h
09.10.2015 22:00 11,8 C 84 % 1015,5 hPa 0,0 l/m 0,0 km/h O-NO 9,2 C 11,8 C 0,0 km/h
09.10.2015 23:00 11,2 C 85 % 1015,0 hPa 0,0 l/m 0,0 km/h O-SO 8,8 C 11,2 C 0,0 km/h
10.10.2015 00:00 9,9 C 85 % 1014,7 hPa 0,0 l/m 0,0 km/h O-SO 7,5 C 9,9 C 0,0 km/h
10.10.2015 01:00 8,6 C 86 % 1014,6 hPa 0,0 l/m 0,0 km/h O-SO 6,4 C 8,6 C 0,0 km/h
10.10.2015 02:00 8,1 C 86 % 1014,4 hPa 0,0 l/m 0,0 km/h O-NO 5,9 C 8,1 C 0,0 km/h
10.10.2015 03:00 7,1 C 86 % 1014,4 hPa 0,0 l/m 0,0 km/h O 4,9 C 7,1 C 0,0 km/h
10.10.2015 04:00 6,4 C 86 % 1014,1 hPa 0,0 l/m 0,0 km/h O-SO 4,2 C 6,4 C 0,0 km/h
10.10.2015 05:00 6,4 C 86 % 1013,9 hPa 0,0 l/m 0,0 km/h O-SO 4,2 C 6,4 C 0,0 km/h
10.10.2015 06:00 7,8 C 85 % 1014,0 hPa 0,0 l/m 0,0 km/h O-SO 5,4 C 7,8 C 0,0 km/h
10.10.2015 07:00 8,4 C 85 % 1013,7 hPa 0,0 l/m 0,0 km/h NO 6,0 C 8,4 C 0,0 km/h
10.10.2015 08:00 8,5 C 84 % 1013,7 hPa 0,0 l/m 0,0 km/h NO 6,0 C 8,5 C 0,0 km/h
10.10.2015 09:00 9,2 C 83 % 1013,6 hPa 0,0 l/m 0,0 km/h W 6,5 C 9,2 C 0,0 km/h
10.10.2015 10:00 10,9 C 83 % 1013,3 hPa 0,0 l/m 0,0 km/h S 8,1 C 10,9 C 0,0 km/h
10.10.2015 11:00 14,6 C 86 % 1012,8 hPa 0,0 l/m 0,0 km/h W 12,3 C 14,6 C 0,0 km/h
10.10.2015 12:00 20,9 C 66 % 1012,1 hPa 0,0 l/m 0,0 km/h NO 14,3 C 20,9 C 0,0 km/h
10.10.2015 13:00 19,8 C 54 % 1011,5 hPa 0,0 l/m 0,0 km/h N-NO 10,2 C 19,8 C 0,0 km/h
10.10.2015 14:00 19,5 C 53 % 1011,1 hPa 0,0 l/m 0,0 km/h N-NO 9,7 C 19,5 C 0,0 km/h
10.10.2015 15:00 22,0 C 49 % 1010,6 hPa 0,0 l/m 0,0 km/h N-NO 10,8 C 22,0 C 0,0 km/h
10.10.2015 16:00 15,7 C 65 % 1010,6 hPa 0,0 l/m 0,0 km/h N-NO 9,1 C 15,7 C 0,0 km/h
10.10.2015 17:00 14,7 C 68 % 1010,6 hPa 0,0 l/m 0,0 km/h N-NO 8,9 C 14,7 C 0,0 km/h
10.10.2015 18:00 13,3 C 73 % 1010,7 hPa 0,0 l/m 0,0 km/h N-NO 8,6 C 13,3 C 0,0 km/h
10.10.2015 19:00 13,4 C 74 % 1011,0 hPa 0,0 l/m 0,0 km/h N-NO 8,9 C 13,4 C 0,0 km/h
10.10.2015 20:00 12,7 C 77 % 1010,8 hPa 0,0 l/m 0,0 km/h NO 8,8 C 12,7 C 0,0 km/h
10.10.2015 21:00 10,1 C 80 % 1011,0 hPa 0,0 l/m 0,0 km/h NO 6,8 C 10,1 C 0,0 km/h
10.10.2015 22:00 8,8 C 84 % 1010,9 hPa 0,0 l/m 0,0 km/h SW 6,2 C 8,8 C 0,0 km/h
10.10.2015 23:00 8,1 C 86 % 1010,4 hPa 0,0 l/m 0,0 km/h W-SW 5,9 C 8,1 C 0,0 km/h
11.10.2015 00:00 8,0 C 86 % 1010,1 hPa 0,0 l/m 0,0 km/h W-SW 5,8 C 8,0 C 0,0 km/h
11.10.2015 01:00 8,1 C 86 % 1010,0 hPa 0,0 l/m 0,0 km/h W-NW 5,9 C 8,1 C 0,0 km/h
11.10.2015 02:00 7,8 C 86 % 1009,8 hPa 0,0 l/m 0,0 km/h SO 5,6 C 7,8 C 0,0 km/h
11.10.2015 03:00 7,8 C 86 % 1009,6 hPa 0,0 l/m 0,0 km/h O-NO 5,6 C 7,8 C 0,0 km/h
11.10.2015 04:00 8,6 C 85 % 1009,5 hPa 0,0 l/m 0,0 km/h W 6,2 C 8,6 C 0,0 km/h
11.10.2015 05:00 8,4 C 86 % 1009,5 hPa 0,0 l/m 0,0 km/h W 6,2 C 8,4 C 0,0 km/h
11.10.2015 06:00 7,4 C 85 % 1009,6 hPa 0,0 l/m 0,0 km/h S-SO 5,0 C 7,4 C 0,0 km/h
11.10.2015 07:00 7,9 C 85 % 1009,7 hPa 0,0 l/m 0,0 km/h S-SO 5,5 C 7,9 C 0,0 km/h
11.10.2015 08:00 8,8 C 84 % 1009,9 hPa 0,0 l/m 0,0 km/h S-SW 6,2 C 8,8 C 0,0 km/h
11.10.2015 09:00 10,4 C 84 % 1010,1 hPa 0,0 l/m 0,0 km/h W 7,8 C 10,4 C 0,0 km/h
11.10.2015 10:00 10,8 C 86 % 1010,3 hPa 0,0 l/m 0,0 km/h W-NW 8,6 C 10,8 C 0,0 km/h
11.10.2015 11:00 11,8 C 83 % 1010,4 hPa 0,0 l/m 0,0 km/h W 9,0 C 11,8 C 0,0 km/h
11.10.2015 12:00 15,2 C 79 % 1009,7 hPa 0,0 l/m 0,0 km/h O-NO 11,6 C 15,2 C 0,0 km/h
11.10.2015 13:00 19,6 C 56 % 1009,3 hPa 0,0 l/m 0,0 km/h NO 10,6 C 19,6 C 0,0 km/h
11.10.2015 14:00 21,3 C 52 % 1008,7 hPa 0,0 l/m 0,0 km/h N 11,0 C 21,3 C 0,0 km/h
11.10.2015 15:00 21,3 C 49 % 1008,5 hPa 0,0 l/m 0,0 km/h N-NO 10,1 C 21,3 C 0,0 km/h
11.10.2015 16:00 20,4 C 51 % 1008,4 hPa 0,0 l/m 0,0 km/h N 9,9 C 20,4 C 0,0 km/h
11.10.2015 17:00 18,3 C 55 % 1008,5 hPa 0,0 l/m 0,0 km/h N-NO 9,1 C 18,3 C 0,0 km/h
11.10.2015 18:00 15,1 C 65 % 1008,9 hPa 0,0 l/m 0,0 km/h O-SO 8,6 C 15,1 C 0,0 km/h
11.10.2015 19:00 13,9 C 70 % 1009,6 hPa 0,0 l/m 0,0 km/h S-SO 8,5 C 13,9 C 0,0 km/h
11.10.2015 20:00 12,9 C 73 % 1010,1 hPa 0,0 l/m 0,0 km/h N-NO 8,2 C 12,9 C 0,0 km/h
11.10.2015 21:00 13,2 C 68 % 1010,1 hPa 0,0 l/m 0,0 km/h O-SO 7,4 C 13,2 C 0,0 km/h
11.10.2015 22:00 12,8 C 68 % 1010,4 hPa 0,0 l/m 0,0 km/h N-NO 7,0 C 12,8 C 0,0 km/h
11.10.2015 23:00 12,1 C 69 % 1010,4 hPa 0,0 l/m 0,0 km/h O-SO 6,6 C 12,1 C 0,0 km/h
Min-Datum _ 10.10.15 10.10.15 06.10.15 - 05.10.15 - 10.10.15 10.10.15 05.10.15
_ Min-Zeit 04:42 15:42 09:42 - 00:42 - 04:42 04:42 00:42
Minimum _ 6,4 C 49 % 1003,1 hPa - 0,0 km/h - 4,2 C 6,4 C 0,0 km/h
Max-Datum _ 05.10.15 07.10.15 08.10.15 06.10.15 07.10.15 - 06.10.15 05.10.15 07.10.15
_ Max-Zeit 15:42 03:42 22:42 14:42 16:42 - 10:42 15:42 16:42
Maximum _ 23,6 C 86 % 1018,8 hPa 2,5 l/m 24,6 km/h
W-SW
- 16,7 C 23,6 C 13,7 km/h
W-SW
Durchschnitt _ 13,8 C 78 % 1012,0 hPa #5,8 l/m 1,6 km/h N-NO 9,8 C 13,5 C 0,9 km/h
www.sexauwetter.de